Time;durP1;ratioP1;P1;durP2;ratioP2;P2;SDS_P1;SDS_P2;PMS_P1;PMS_P2;Temp;Humidity;BMP_temperature;BMP_pressure;BME280_temperature;BME280_humidity;BME280_pressure;Samples;Min_cycle;Max_cycle;Signal;HPM_P1;HPM_P2
2022/05/20 00:02:06;;;;;;;32.72;23.23;;;;;;;15.59;74.23;102156.81;5010869;28;20028;-74
2022/05/20 00:04:31;;;;;;;38.78;27.40;;;;;;;15.44;73.68;102163.47;5010927;28;20465;-74
2022/05/20 00:06:57;;;;;;;31.67;23.90;;;;;;;15.42;73.90;102157.28;5004870;28;20027;-74
2022/05/20 00:09:22;;;;;;;27.77;20.58;;;;;;;15.37;72.91;102161.53;4991300;28;20034;-74
2022/05/20 00:11:48;;;;;;;23.25;17.60;;;;;;;15.30;72.49;102167.50;5010797;28;20539;-74
2022/05/20 00:14:13;;;;;;;25.15;18.33;;;;;;;15.25;73.51;102162.13;5010812;28;20050;-74
2022/05/20 00:16:39;;;;;;;30.05;21.52;;;;;;;15.20;74.20;102166.34;5009411;28;20026;-74
2022/05/20 00:19:06;;;;;;;30.08;22.20;;;;;;;15.15;74.53;102154.88;4998608;28;20057;-74
2022/05/20 00:21:33;;;;;;;33.55;23.95;;;;;;;15.15;74.06;102164.47;5010668;28;20037;-74
2022/05/20 00:23:59;;;;;;;39.30;26.92;;;;;;;15.12;74.59;102166.19;5010790;28;20029;-74
2022/05/20 00:26:24;;;;;;;35.35;25.23;;;;;;;15.09;73.99;102157.31;5010477;28;20512;-74
2022/05/20 00:28:50;;;;;;;36.35;25.42;;;;;;;15.06;73.38;102154.63;4990188;28;20026;-74
2022/05/20 00:31:16;;;;;;;36.83;26.30;;;;;;;15.04;73.80;102149.31;5002101;28;20453;-74
2022/05/20 00:33:42;;;;;;;38.58;26.67;;;;;;;15.03;73.91;102152.78;5004216;28;20041;-74
2022/05/20 00:36:08;;;;;;;43.95;29.05;;;;;;;14.95;73.95;102151.72;4999707;28;20050;-74
2022/05/20 00:38:34;;;;;;;43.35;29.25;;;;;;;14.91;73.74;102147.22;5013929;28;20033;-74
2022/05/20 00:41:01;;;;;;;40.88;27.27;;;;;;;14.87;73.63;102151.50;5014637;28;20026;-74
2022/05/20 00:43:29;;;;;;;40.80;26.40;;;;;;;14.85;73.48;102154.94;5002613;28;20065;-74
2022/05/20 00:45:58;;;;;;;39.10;25.92;;;;;;;14.78;73.85;102148.63;5014519;28;20511;-74
2022/05/20 00:48:24;;;;;;;43.58;27.60;;;;;;;14.73;73.82;102148.50;5014274;28;20018;-74
2022/05/20 00:51:01;;;;;;;35.05;25.10;;;;;;;14.72;73.44;102149.34;5014424;28;20038;-74
2022/05/20 00:53:33;;;;;;;28.05;20.55;;;;;;;14.71;73.49;102142.31;4992932;28;20481;-74
2022/05/20 00:56:01;;;;;;;25.95;19.25;;;;;;;14.67;73.28;102148.34;4996672;28;20138;-74
2022/05/20 00:58:27;;;;;;;21.10;16.80;;;;;;;14.60;73.02;102136.75;5014209;28;20084;-74
2022/05/20 01:00:55;;;;;;;21.60;17.60;;;;;;;14.52;73.39;102135.66;5014127;28;20041;-74
2022/05/20 01:03:25;;;;;;;22.40;19.15;;;;;;;14.50;73.51;102144.34;4997552;28;20442;-74
2022/05/20 01:05:52;;;;;;;31.88;22.85;;;;;;;14.46;74.61;102145.09;5014124;28;20034;-74
2022/05/20 01:08:21;;;;;;;25.15;19.45;;;;;;;14.51;74.93;102143.47;5004249;28;20092;-74
2022/05/20 01:10:47;;;;;;;32.40;21.85;;;;;;;14.52;75.43;102147.88;5001504;28;20029;-73
2022/05/20 01:13:15;;;;;;;28.02;21.77;;;;;;;14.46;75.72;102143.34;5014055;28;20028;-74
2022/05/20 01:15:41;;;;;;;24.98;19.15;;;;;;;14.40;74.25;102146.69;5014108;28;20033;-74
2022/05/20 01:18:08;;;;;;;31.50;23.38;;;;;;;14.37;75.24;102145.72;5014117;28;20084;-74
2022/05/20 01:20:38;;;;;;;39.47;25.25;;;;;;;14.39;76.79;102146.63;4999612;28;20026;-74
2022/05/20 01:23:07;;;;;;;37.75;24.23;;;;;;;14.43;76.60;102146.75;5013979;28;20029;-74
2022/05/20 01:25:33;;;;;;;35.90;23.98;;;;;;;14.47;76.14;102153.00;5013831;28;20030;-74
2022/05/20 01:27:58;;;;;;;31.88;22.38;;;;;;;14.42;74.93;102144.09;5013846;28;20022;-74
2022/05/20 01:30:26;;;;;;;30.65;22.65;;;;;;;14.37;74.75;102143.09;4974441;28;20118;-74
2022/05/20 01:32:52;;;;;;;30.13;21.95;;;;;;;14.35;75.70;102137.81;5005632;28;20054;-74
2022/05/20 01:35:25;;;;;;;31.88;21.67;;;;;;;14.34;74.61;102133.41;5004584;28;20056;-74
2022/05/20 01:37:50;;;;;;;32.28;22.40;;;;;;;14.28;73.93;102125.38;5013368;28;20030;-74
2022/05/20 01:40:16;;;;;;;30.88;22.38;;;;;;;14.22;74.24;102123.44;5005896;28;20030;-74
2022/05/20 01:42:59;;;;;;;35.33;22.98;;;;;;;14.22;74.10;102125.16;4988263;28;20539;-74
2022/05/20 01:45:37;;;;;;;31.00;23.00;;;;;;;14.16;74.57;102125.00;5013409;28;20030;-74
2022/05/20 01:48:19;;;;;;;34.72;24.02;;;;;;;14.17;74.29;102126.78;5012335;28;20075;-74
2022/05/20 01:50:51;;;;;;;31.25;22.40;;;;;;;14.12;74.30;102115.25;5009264;28;20037;-74
2022/05/20 01:53:25;;;;;;;31.63;22.20;;;;;;;14.05;74.46;102109.84;5013339;28;20032;-74
2022/05/20 01:55:56;;;;;;;32.25;22.10;;;;;;;14.02;74.68;102104.50;5013273;28;20104;-74
2022/05/20 01:58:35;;;;;;;31.63;22.67;;;;;;;14.04;74.48;102108.06;5013065;28;20033;-74
2022/05/20 02:01:06;;;;;;;31.65;22.55;;;;;;;13.98;74.28;102110.50;4998592;28;20061;-74
2022/05/20 02:03:34;;;;;;;30.20;21.10;;;;;;;13.91;74.27;102117.28;5013271;28;20022;-74
2022/05/20 02:06:08;;;;;;;33.47;22.30;;;;;;;13.88;74.25;102109.31;5012854;28;20508;-74
2022/05/20 02:08:41;;;;;;;38.08;24.75;;;;;;;13.87;74.60;102109.28;5013079;28;20022;-74
2022/05/20 02:11:39;;;;;;;40.75;27.25;;;;;;;13.91;74.54;102104.19;4991177;28;20029;-74
2022/05/20 02:14:13;;;;;;;39.97;26.17;;;;;;;13.84;74.73;102106.56;5012782;28;20018;-74
2022/05/20 02:16:49;;;;;;;39.45;26.45;;;;;;;13.79;74.38;102097.66;5011441;28;20026;-74
2022/05/20 02:19:17;;;;;;;38.92;26.52;;;;;;;13.74;74.65;102102.78;4992686;28;20033;-74
2022/05/20 02:21:47;;;;;;;39.55;27.17;;;;;;;13.70;75.02;102103.50;5012771;28;20040;-74
2022/05/20 02:24:18;;;;;;;36.53;25.60;;;;;;;13.73;75.04;102108.88;5006571;28;20030;-73
2022/05/20 02:26:48;;;;;;;37.75;26.40;;;;;;;13.70;74.94;102099.19;5005610;28;20033;-74
2022/05/20 02:29:18;;;;;;;37.45;26.23;;;;;;;13.71;74.90;102110.53;4995039;28;20029;-74
2022/05/20 02:31:52;;;;;;;36.00;25.40;;;;;;;13.72;74.68;102107.97;5012210;28;20029;-74
2022/05/20 02:34:17;;;;;;;34.85;23.98;;;;;;;13.69;74.20;102100.03;4977048;28;20030;-73
2022/05/20 02:36:42;;;;;;;34.55;24.33;;;;;;;13.68;74.28;102093.00;5006453;28;20032;-74
2022/05/20 02:39:15;;;;;;;33.67;24.02;;;;;;;13.64;73.89;102098.97;5012361;28;20104;-74
2022/05/20 02:41:45;;;;;;;31.63;23.10;;;;;;;13.62;74.07;102105.91;5012080;28;20034;-74
2022/05/20 02:44:10;;;;;;;32.47;23.52;;;;;;;13.62;74.57;102105.91;5004061;28;20030;-74
2022/05/20 02:46:37;;;;;;;30.73;22.48;;;;;;;13.57;75.68;102113.63;4993185;28;20033;-74
2022/05/20 02:49:03;;;;;;;30.25;22.20;;;;;;;13.62;75.33;102102.41;5012218;28;20528;-74
2022/05/20 02:51:28;;;;;;;28.88;20.92;;;;;;;13.63;75.39;102101.56;5012086;28;20121;-74
2022/05/20 02:53:53;;;;;;;26.20;19.80;;;;;;;13.63;75.23;102097.22;4992604;28;20025;-74
2022/05/20 02:56:19;;;;;;;25.15;19.25;;;;;;;13.65;75.11;102099.88;4997751;28;20018;-74
2022/05/20 03:04:12;;;;;;;34.08;23.50;;;;;;;13.49;74.47;102101.13;4988958;28;20041;-74
2022/05/20 03:06:40;;;;;;;38.00;24.63;;;;;;;13.45;74.58;102096.63;5003742;28;20030;-74
2022/05/20 03:09:06;;;;;;;38.00;25.33;;;;;;;13.38;74.37;102095.53;5011831;28;20032;-74
2022/05/20 03:11:33;;;;;;;38.22;25.73;;;;;;;13.35;74.93;102100.69;5011648;28;20045;-74
2022/05/20 03:14:00;;;;;;;34.47;23.60;;;;;;;13.40;75.61;102091.25;5009165;28;20473;-74
2022/05/20 03:16:25;;;;;;;33.90;24.27;;;;;;;13.32;75.07;102077.88;5002060;28;20028;-74
2022/05/20 03:18:51;;;;;;;34.28;24.55;;;;;;;13.29;75.90;102085.63;5011658;28;20029;-74
2022/05/20 03:21:16;;;;;;;33.72;24.00;;;;;;;13.24;75.15;102089.84;5011508;28;20018;-74
2022/05/20 03:23:41;;;;;;;35.08;24.60;;;;;;;13.22;75.40;102088.88;5011734;28;20048;-74
2022/05/20 03:26:07;;;;;;;36.05;24.65;;;;;;;13.18;75.27;102092.25;4998020;28;20041;-74
2022/05/20 03:28:34;;;;;;;34.15;24.35;;;;;;;13.19;75.75;102092.31;4993957;28;20018;-74
2022/05/20 03:31:07;;;;;;;34.85;24.67;;;;;;;13.17;76.01;102086.13;5011526;28;20030;-74
2022/05/20 03:33:36;;;;;;;35.65;24.58;;;;;;;13.19;75.76;102092.31;4998115;28;20445;-74
2022/05/20 03:36:01;;;;;;;35.95;25.42;;;;;;;13.26;75.67;102084.66;5002545;28;20239;-74
2022/05/20 03:38:26;;;;;;;33.72;24.15;;;;;;;13.17;75.75;102086.13;5005388;28;20019;-74
2022/05/20 03:43:33;;;;;;;;;;;;;;;13.39;74.50;102085.09;5378782;23;20257;-74
2022/05/20 03:45:58;;;;;;;32.63;22.67;;;;;;;13.25;75.47;102095.94;5004424;28;20020;-74
2022/05/20 03:48:23;;;;;;;32.40;22.83;;;;;;;13.22;75.41;102088.88;5027002;28;20101;-74
2022/05/20 03:50:49;;;;;;;33.63;23.95;;;;;;;13.18;75.92;102087.03;5023699;28;20021;-73
2022/05/20 03:53:14;;;;;;;35.47;24.08;;;;;;;13.14;76.30;102074.69;5014774;28;20547;-74
2022/05/20 03:55:40;;;;;;;36.67;24.67;;;;;;;13.16;76.81;102073.00;5025681;28;20021;-74
2022/05/20 03:58:05;;;;;;;37.03;24.98;;;;;;;13.20;76.99;102069.63;5030716;28;20030;-73
2022/05/20 04:00:31;;;;;;;37.20;25.38;;;;;;;13.21;76.89;102079.28;5030847;28;20021;-74
2022/05/20 04:02:56;;;;;;;39.42;26.48;;;;;;;13.21;77.62;102067.06;5030736;28;20548;-74
2022/05/20 04:05:22;;;;;;;40.33;26.73;;;;;;;13.22;78.06;102062.72;5028689;28;20017;-74
2022/05/20 04:07:47;;;;;;;39.63;25.75;;;;;;;13.25;78.10;102054.94;5012961;28;20502;-74
2022/05/20 04:10:13;;;;;;;40.85;26.48;;;;;;;13.26;78.10;102054.13;5030277;28;20794;-74
2022/05/20 04:12:41;;;;;;;37.35;25.25;;;;;;;13.24;78.17;102045.34;5028377;28;20022;-74
2022/05/20 04:15:13;;;;;;;35.83;24.40;;;;;;;13.25;77.99;102057.56;5030479;28;20087;-74
2022/05/20 04:17:38;;;;;;;36.58;24.95;;;;;;;13.25;77.82;102052.34;5030404;28;20103;-73
2022/05/20 04:20:08;;;;;;;40.47;26.88;;;;;;;13.26;78.47;102059.34;5030357;28;20497;-74
2022/05/20 04:22:36;;;;;;;41.40;27.98;;;;;;;13.22;79.15;102037.44;5029195;28;20036;-74
2022/05/20 04:25:03;;;;;;;41.80;27.33;;;;;;;13.23;78.91;102036.59;5030416;28;20017;-74
2022/05/20 04:27:28;;;;;;;37.33;26.40;;;;;;;13.26;79.25;102038.41;5030394;28;20025;-73
2022/05/20 04:29:54;;;;;;;41.92;27.73;;;;;;;13.25;79.29;102039.25;5030362;28;20473;-73
2022/05/20 04:32:19;;;;;;;42.80;27.92;;;;;;;13.27;79.83;102045.44;5029227;28;20040;-73
2022/05/20 04:34:45;;;;;;;39.72;27.48;;;;;;;13.27;80.11;102047.19;5030314;28;20025;-73
2022/05/20 04:37:11;;;;;;;42.67;27.77;;;;;;;13.29;80.28;102043.75;5030027;28;20026;-73
2022/05/20 04:39:36;;;;;;;41.58;29.20;;;;;;;13.30;80.72;102039.41;5030284;28;20032;-74
2022/05/20 04:47:31;;;;;;;42.03;28.92;;;;;;;13.37;81.07;102047.53;5010638;28;20076;-73
2022/05/20 04:49:57;;;;;;;39.33;27.92;;;;;;;13.37;80.92;102050.16;5010505;28;20088;-74
2022/05/20 04:52:23;;;;;;;40.75;27.65;;;;;;;13.41;81.05;102058.97;5014109;28;20488;-74
2022/05/20 04:54:49;;;;;;;40.92;29.25;;;;;;;13.44;81.28;102069.56;5022448;28;20038;-73
2022/05/20 04:57:31;;;;;;;39.55;27.77;;;;;;;13.48;80.82;102073.16;5010332;28;20033;-74
2022/05/20 05:00:01;;;;;;;44.17;29.00;;;;;;;13.48;81.60;102070.53;5010282;28;20123;-74
2022/05/20 05:02:26;;;;;;;;;;;;;;;13.67;79.19;102077.22;5015445;28;20108;-74
2022/05/20 05:04:52;;;;;;;44.70;26.40;;;;;;;13.57;81.87;102076.09;5014180;28;20441;-74
2022/05/20 05:07:18;;;;;;;46.22;29.15;;;;;;;13.59;82.22;102077.00;5010230;28;20026;-73
2022/05/20 05:09:44;;;;;;;40.03;28.27;;;;;;;13.61;82.53;102070.06;5010249;28;20022;-73
2022/05/20 05:12:11;;;;;;;43.13;29.70;;;;;;;13.64;82.49;102064.94;5011829;28;20090;-74
2022/05/20 05:14:47;;;;;;;42.38;30.02;;;;;;;13.69;82.17;102070.34;5013966;28;20029;-74
2022/05/20 05:17:17;;;;;;;41.78;28.23;;;;;;;13.69;82.70;102063.34;5010187;28;20026;-74
2022/05/20 05:19:44;;;;;;;;;;;;;;;13.88;79.95;102063.91;5010632;28;20021;-73
2022/05/20 05:22:11;;;;;;;46.15;29.88;;;;;;;13.80;82.20;102062.78;5011924;28;19917;-74
2022/05/20 05:24:37;;;;;;;46.17;31.13;;;;;;;13.80;82.70;102068.03;5021698;28;20163;-74
2022/05/20 05:27:04;;;;;;;47.88;31.10;;;;;;;13.85;82.60;102067.31;5013895;28;20047;-74
2022/05/20 05:29:30;;;;;;;52.10;32.88;;;;;;;13.88;83.12;102066.53;5013878;28;20476;-74
2022/05/20 05:31:57;;;;;;;51.20;34.53;;;;;;;13.90;83.19;102070.97;5013051;28;20026;-74
2022/05/20 05:34:22;;;;;;;51.17;33.47;;;;;;;13.96;82.32;102070.28;5017010;28;20034;-74
2022/05/20 05:36:48;;;;;;;52.65;33.85;;;;;;;13.96;82.88;102053.66;5013658;28;20029;-74
2022/05/20 05:39:13;;;;;;;53.28;34.58;;;;;;;14.03;83.36;102051.25;5013376;28;20029;-73
2022/05/20 05:41:38;;;;;;;55.30;35.40;;;;;;;14.05;83.59;102043.44;5013678;28;20021;-74
2022/05/20 05:44:04;;;;;;;56.45;34.70;;;;;;;14.08;83.66;102039.16;5016638;28;20042;-74
2022/05/20 05:46:30;;;;;;;58.78;37.45;;;;;;;14.12;83.27;102040.16;5013596;28;20384;-74
2022/05/20 05:48:56;;;;;;;60.20;37.92;;;;;;;14.20;83.58;102038.63;5013730;28;20026;-74
2022/05/20 05:51:22;;;;;;;57.47;36.78;;;;;;;14.24;83.51;102026.50;5013349;28;20057;-74
2022/05/20 05:53:47;;;;;;;57.13;36.40;;;;;;;14.32;83.64;102027.56;5014615;28;20543;-74
2022/05/20 05:56:15;;;;;;;56.90;37.33;;;;;;;14.37;83.72;102039.09;5025409;28;20520;-74
2022/05/20 05:58:41;;;;;;;55.20;36.33;;;;;;;14.48;84.37;102020.13;5013185;28;20022;-74
2022/05/20 06:01:06;;;;;;;55.05;36.47;;;;;;;14.57;83.84;102018.63;5013133;28;20022;-74
2022/05/20 06:03:32;;;;;;;58.33;37.47;;;;;;;14.65;84.85;102024.09;5020464;28;20029;-74
2022/05/20 06:05:58;;;;;;;54.10;35.10;;;;;;;14.75;83.66;102027.88;5015788;28;20460;-74
2022/05/20 06:08:24;;;;;;;53.97;35.03;;;;;;;14.85;81.81;102032.50;5013114;28;20014;-74
2022/05/20 06:10:49;;;;;;;52.88;35.42;;;;;;;14.90;83.39;102032.59;5012899;28;20112;-74
2022/05/20 06:13:23;;;;;;;51.67;33.45;;;;;;;15.00;82.44;102026.72;4996746;28;20794;-74
2022/05/20 06:15:49;;;;;;;49.22;33.45;;;;;;;15.05;82.85;102019.84;5015999;28;20025;-74
2022/05/20 06:18:14;;;;;;;47.97;32.83;;;;;;;15.11;81.91;102027.00;5012814;28;20028;-74
2022/05/20 06:20:40;;;;;;;47.92;31.25;;;;;;;15.16;81.63;102027.97;5012915;28;20033;-74
2022/05/20 06:23:05;;;;;;;45.90;31.60;;;;;;;15.21;82.74;102020.22;5017380;28;20021;-74
2022/05/20 06:25:30;;;;;;;48.53;32.28;;;;;;;15.24;82.50;102028.19;5017138;28;20026;-74
2022/05/20 06:28:04;;;;;;;46.33;30.48;;;;;;;15.29;82.04;102019.56;5012697;28;20056;-74
2022/05/20 06:30:30;;;;;;;43.20;29.10;;;;;;;15.35;81.19;102023.16;5012642;28;20022;-74
2022/05/20 06:32:55;;;;;;;43.42;29.38;;;;;;;15.40;80.92;102018.91;5014853;28;20575;-74
2022/05/20 06:40:49;;;;;;;41.05;27.02;;;;;;;15.53;79.65;102001.69;5012292;28;20052;-74
2022/05/20 06:43:18;;;;;;;39.60;26.20;;;;;;;15.54;79.47;101995.56;5010837;28;20513;-74
2022/05/20 06:45:45;;;;;;;40.50;26.50;;;;;;;15.54;79.70;101995.56;5012041;28;20409;-74
2022/05/20 06:48:12;;;;;;;40.97;26.23;;;;;;;15.55;79.04;101989.47;5012298;28;20068;-74
2022/05/20 06:50:38;;;;;;;38.80;26.55;;;;;;;15.56;80.22;101991.25;5023455;28;20030;-74
2022/05/20 06:53:04;;;;;;;39.85;27.00;;;;;;;15.54;80.42;101987.69;5010966;28;20022;-73
2022/05/20 06:55:30;;;;;;;38.25;24.70;;;;;;;15.55;78.63;101992.97;5008574;28;20096;-74
2022/05/20 06:57:56;;;;;;;38.17;25.50;;;;;;;15.59;80.79;101991.31;5011280;28;20026;-74
2022/05/20 07:00:21;;;;;;;41.75;25.90;;;;;;;15.65;79.64;101984.41;5007997;28;20041;-74
2022/05/20 07:02:46;;;;;;;37.53;25.48;;;;;;;15.74;80.22;101985.47;5017411;28;20017;-74
2022/05/20 07:05:12;;;;;;;37.70;24.83;;;;;;;15.78;78.44;101984.69;5010938;28;20455;-74
2022/05/20 07:07:38;;;;;;;37.80;24.55;;;;;;;15.79;78.88;101982.13;5011560;28;20049;-74
2022/05/20 07:10:04;;;;;;;40.83;26.92;;;;;;;15.84;79.96;101976.94;5011616;28;20073;-74
2022/05/20 07:12:30;;;;;;;31.58;20.83;;;;;;;15.87;78.80;101966.50;5024698;28;20026;-73
2022/05/20 07:14:55;;;;;;;35.33;24.08;;;;;;;15.91;79.62;101973.59;5016650;28;20014;-74
2022/05/20 07:17:22;;;;;;;35.92;25.45;;;;;;;15.95;80.64;101961.41;5011707;28;20030;-74
2022/05/20 07:19:50;;;;;;;32.03;22.50;;;;;;;15.99;77.44;101953.59;5011111;28;20034;-74
2022/05/20 07:22:15;;;;;;;32.53;21.40;;;;;;;16.08;78.80;101954.66;5021890;28;20022;-74
2022/05/20 07:24:40;;;;;;;32.55;22.02;;;;;;;16.11;78.10;101950.31;5011586;28;20025;-73
2022/05/20 07:27:05;;;;;;;30.10;20.63;;;;;;;16.20;78.97;101951.34;5011686;28;20028;-74
2022/05/20 07:29:31;;;;;;;28.70;19.77;;;;;;;16.23;76.79;101944.38;5011594;28;20021;-74
2022/05/20 07:31:56;;;;;;;29.05;20.00;;;;;;;16.27;75.45;101951.47;5021576;28;20098;-74
2022/05/20 07:34:22;;;;;;;27.83;18.98;;;;;;;16.33;74.88;101938.44;5011406;28;20371;-74
2022/05/20 07:36:47;;;;;;;29.85;20.50;;;;;;;16.39;77.35;101937.66;5011448;28;20030;-74
2022/05/20 07:39:13;;;;;;;26.48;18.95;;;;;;;16.47;75.88;101945.69;5011393;28;20444;-74
2022/05/20 07:41:38;;;;;;;29.33;20.02;;;;;;;16.50;78.12;101941.34;5017457;28;20638;-73
2022/05/20 07:44:03;;;;;;;29.92;20.33;;;;;;;16.58;76.44;101935.34;5010589;28;20054;-73
2022/05/20 07:46:29;;;;;;;31.05;23.08;;;;;;;16.62;74.45;101938.03;5009910;28;20022;-73
2022/05/20 07:48:54;;;;;;;25.75;18.88;;;;;;;16.67;75.70;101923.22;5010645;28;20025;-74
2022/05/20 07:51:24;;;;;;;21.20;15.05;;;;;;;16.70;70.19;101911.84;5009918;28;20025;-74
2022/05/20 07:53:57;;;;;;;19.95;13.40;;;;;;;16.73;69.48;101897.84;5010827;28;20120;-74
2022/05/20 07:56:31;;;;;;;21.38;14.32;;;;;;;16.76;72.06;101898.78;5018371;28;20041;-74
2022/05/20 07:59:05;;;;;;;22.65;15.48;;;;;;;16.83;71.86;101897.13;5011025;28;20045;-73
2022/05/20 08:01:33;;;;;;;24.10;16.48;;;;;;;16.86;70.03;101902.44;5019332;28;20558;-74
2022/05/20 08:06:49;;;;;;;22.60;15.65;;;;;;;16.97;71.74;101899.97;5009061;28;20088;-74
2022/05/20 08:09:15;;;;;;;21.27;14.63;;;;;;;17.01;70.13;101886.00;5007760;28;20409;-80
2022/05/20 08:11:40;;;;;;;19.67;15.13;;;;;;;17.05;68.74;101885.19;5009498;28;20025;-69
2022/05/20 08:14:06;;;;;;;20.77;15.88;;;;;;;17.10;70.14;101891.38;5010598;28;20046;-68
2022/05/20 08:16:31;;;;;;;19.60;15.35;;;;;;;17.15;68.68;101887.06;5011779;28;20583;-69
2022/05/20 08:18:56;;;;;;;20.38;14.05;;;;;;;17.19;68.42;101894.16;5015896;28;20064;-68
2022/05/20 08:21:22;;;;;;;18.45;13.63;;;;;;;17.25;68.42;101889.81;5010695;28;20646;-69
2022/05/20 08:23:47;;;;;;;21.35;14.80;;;;;;;17.32;71.69;101883.75;5010706;28;20030;-68
2022/05/20 08:26:18;;;;;;;22.77;15.55;;;;;;;17.35;67.80;101892.59;5017220;28;20658;-68
2022/05/20 08:28:44;;;;;;;18.90;14.55;;;;;;;17.40;70.07;101875.97;5010859;28;20578;-68
2022/05/20 08:31:09;;;;;;;21.67;14.70;;;;;;;17.41;67.80;101876.00;5010451;28;20030;-69
2022/05/20 08:33:35;;;;;;;25.13;15.15;;;;;;;17.43;65.74;101876.88;5008332;28;20115;-72
2022/05/20 08:36:01;;;;;;;21.35;15.30;;;;;;;17.46;67.55;101869.00;5008508;28;20033;-68
2022/05/20 08:38:26;;;;;;;22.02;15.55;;;;;;;17.48;66.85;101869.03;5004122;28;20014;-68
2022/05/20 08:40:52;;;;;;;24.33;16.45;;;;;;;17.47;66.29;101864.63;5007641;28;20029;-68
2022/05/20 08:43:24;;;;;;;23.25;16.70;;;;;;;17.48;67.19;101851.47;5006633;28;20390;-68
2022/05/20 08:45:50;;;;;;;20.27;15.38;;;;;;;17.48;68.14;101842.66;5005977;28;20108;-68
2022/05/20 08:48:16;;;;;;;22.45;15.93;;;;;;;17.50;69.93;101839.19;5007872;28;20463;-68
2022/05/20 08:50:48;;;;;;;22.60;16.00;;;;;;;17.51;69.63;101822.53;5016516;28;20025;-68
2022/05/20 08:53:21;;;;;;;27.02;16.45;;;;;;;17.58;70.07;101809.41;5007039;28;20105;-68
2022/05/20 08:55:46;;;;;;;27.33;17.25;;;;;;;17.61;68.24;101819.97;5010418;28;20033;-68
2022/05/20 08:58:17;;;;;;;28.08;19.15;;;;;;;17.66;69.51;101808.59;5012289;28;20045;-68
2022/05/20 09:00:42;;;;;;;28.35;20.30;;;;;;;17.73;69.97;101802.53;5014421;28;20500;-68
2022/05/20 09:03:08;;;;;;;31.05;22.45;;;;;;;17.80;69.60;101806.13;5024107;28;20048;-68
2022/05/20 09:05:38;;;;;;;25.17;19.25;;;;;;;17.83;69.21;101816.69;5020554;28;20026;-68
2022/05/20 09:08:17;;;;;;;27.52;20.25;;;;;;;17.84;68.85;101822.81;5014071;28;20497;-68
2022/05/20 09:10:50;;;;;;;;;;;;;;;17.89;69.45;101805.31;5025701;28;20045;-68
2022/05/20 09:16:14;;;;;;;31.60;23.10;;;;;;;17.91;71.50;101806.22;4987175;28;20040;-68
2022/05/20 09:18:43;;;;;;;30.92;21.30;;;;;;;17.94;69.13;101794.84;5001390;28;20079;-68
2022/05/20 09:21:27;;;;;;;34.03;22.08;;;;;;;17.97;71.63;101779.03;5023033;28;20373;-68
2022/05/20 09:23:56;;;;;;;28.88;20.17;;;;;;;18.04;72.51;101772.94;5013772;28;20029;-68
2022/05/20 09:26:30;;;;;;;26.80;20.23;;;;;;;18.13;70.90;101766.84;5011645;28;20026;-68
2022/05/20 09:29:16;;;;;;;33.03;21.33;;;;;;;18.25;70.76;101762.53;5010508;28;20022;-68
2022/05/20 09:31:56;;;;;;;33.47;20.85;;;;;;;18.33;68.48;101753.78;5010689;28;20080;-68
2022/05/20 09:34:24;;;;;;;28.05;20.75;;;;;;;18.38;67.70;101739.75;5018298;28;20024;-68
2022/05/20 09:37:06;;;;;;;27.85;20.38;;;;;;;18.46;69.21;101733.63;5369676;22;20209;-68
2022/05/20 09:39:31;;;;;;;29.75;20.67;;;;;;;18.54;71.35;101740.72;5341154;23;20089;-68
2022/05/20 09:42:04;;;;;;;29.43;18.00;;;;;;;18.53;66.64;101740.69;5008502;28;20464;-68
2022/05/20 09:44:37;;;;;;;25.67;16.98;;;;;;;18.52;67.09;101739.81;5010502;28;20033;-68
2022/05/20 09:47:30;;;;;;;26.40;16.65;;;;;;;18.53;68.09;101731.03;5013359;28;20057;-68
2022/05/20 09:50:14;;;;;;;25.35;17.33;;;;;;;18.58;69.12;101724.00;5003501;28;20026;-68
2022/05/20 09:53:08;;;;;;;26.23;17.92;;;;;;;18.62;67.34;101711.69;5013324;28;20032;-68
2022/05/20 09:55:43;;;;;;;28.75;19.50;;;;;;;18.69;66.92;101696.78;5004256;28;20024;-68
2022/05/20 09:58:30;;;;;;;29.83;18.30;;;;;;;18.79;67.42;101689.78;5003033;28;20025;-68
2022/05/20 10:01:03;;;;;;;29.55;19.33;;;;;;;18.85;68.13;101680.09;5012735;28;20397;-68
2022/05/20 10:03:39;;;;;;;31.58;19.98;;;;;;;18.90;68.47;101673.13;5010736;28;20033;-68
2022/05/20 10:06:15;;;;;;;28.90;19.95;;;;;;;18.97;67.07;101662.56;5012204;28;20030;-68
2022/05/20 10:08:50;;;;;;;30.60;21.33;;;;;;;19.05;70.37;101653.75;5012006;28;20022;-68
2022/05/20 10:11:30;;;;;;;28.02;20.63;;;;;;;19.11;69.55;101642.31;5010635;28;20096;-68
2022/05/20 10:14:03;;;;;;;31.23;20.92;;;;;;;19.16;69.19;101632.66;5004091;28;20048;-68
2022/05/20 10:16:41;;;;;;;27.38;20.52;;;;;;;19.20;67.29;101623.81;5004854;28;20113;-68
2022/05/20 10:19:37;;;;;;;27.35;19.75;;;;;;;19.23;68.32;101615.94;5007049;28;20030;-68
2022/05/20 10:22:07;;;;;;;26.00;19.25;;;;;;;19.24;67.67;101616.81;5007614;28;20040;-77
2022/05/20 10:25:08;;;;;;;31.63;20.00;;;;;;;19.29;68.13;101607.09;5008090;28;20091;-75
2022/05/20 10:27:52;;;;;;;27.08;18.92;;;;;;;19.32;67.27;101596.56;5014928;28;20049;-75
2022/05/20 10:33:11;;;;;;;34.65;24.75;;;;;;;19.37;69.40;101586.84;5007122;28;20084;-75
2022/05/20 10:36:04;;;;;;;30.48;21.00;;;;;;;19.39;68.54;101581.53;4994568;28;20038;-75
2022/05/20 10:38:40;;;;;;;32.75;20.33;;;;;;;19.39;67.37;101579.81;5008193;28;20037;-75
2022/05/20 10:41:27;;;;;;;29.27;20.30;;;;;;;19.37;67.83;101567.47;4981866;28;20121;-75
2022/05/20 10:50:31;;;;;;;32.30;21.55;;;;;;;19.45;69.45;101526.03;4980266;28;20049;-77
2022/05/20 10:53:11;;;;;;;33.08;24.23;;;;;;;19.49;68.76;101511.06;4986858;28;20026;-77
2022/05/20 10:56:16;;;;;;;31.50;21.42;;;;;;;19.49;68.33;101493.41;4984754;28;20030;-77
2022/05/20 10:59:17;;;;;;;35.47;22.63;;;;;;;19.52;66.97;101476.69;4982861;28;20029;-76
2022/05/20 11:02:10;;;;;;;41.65;26.90;;;;;;;19.59;70.55;101467.84;4983418;28;20513;-79
2022/05/20 11:05:01;;;;;;;33.15;23.13;;;;;;;19.60;68.34;101443.19;4986793;28;20562;-79
2022/05/20 11:07:36;;;;;;;33.35;23.65;;;;;;;19.61;69.69;101440.53;4971213;28;20117;-79
2022/05/20 11:10:13;;;;;;;41.45;27.77;;;;;;;19.62;69.89;101425.53;4983572;28;20980;-79
2022/05/20 11:13:02;;;;;;;42.30;28.90;;;;;;;19.68;70.48;101421.97;4985399;28;20030;-79
2022/05/20 11:15:30;;;;;;;34.80;24.85;;;;;;;19.69;68.69;101406.09;4974492;28;20084;-78
2022/05/20 11:18:23;;;;;;;38.10;26.05;;;;;;;19.70;68.42;101407.88;4991106;28;20113;-76
2022/05/20 11:21:10;;;;;;;37.15;26.75;;;;;;;19.75;68.43;101410.47;4981312;28;20037;-76
2022/05/20 11:23:42;;;;;;;38.80;25.50;;;;;;;19.76;68.79;101402.53;4973900;28;20030;-77
2022/05/20 11:26:14;;;;;;;42.75;28.73;;;;;;;19.82;71.66;101404.31;4973658;28;20490;-76
2022/05/20 11:28:47;;;;;;;42.15;29.17;;;;;;;19.84;69.79;101391.06;4983533;28;20054;-75
2022/05/20 11:31:19;;;;;;;42.47;30.25;;;;;;;19.86;69.87;101391.97;4986790;28;20026;-75
2022/05/20 11:34:01;;;;;;;42.00;31.23;;;;;;;19.89;70.94;101395.44;4986587;28;20080;-76
2022/05/20 11:36:45;;;;;;;44.40;31.95;;;;;;;19.87;69.98;101388.41;4979309;28;20057;-69
2022/05/20 11:39:26;;;;;;;46.88;34.28;;;;;;;19.86;71.61;101392.81;4982576;28;20096;-69
2022/05/20 11:42:01;;;;;;;45.63;31.98;;;;;;;19.83;70.11;101376.97;5006693;28;20473;-69
2022/05/20 11:44:53;;;;;;;49.65;34.88;;;;;;;19.83;71.24;101374.34;5003427;28;20042;-69
2022/05/20 11:47:37;;;;;;;48.83;34.78;;;;;;;19.81;71.45;101376.09;4994134;28;20424;-68
2022/05/20 11:50:25;;;;;;;47.72;35.88;;;;;;;19.81;71.58;101370.81;5003420;28;20038;-68
2022/05/20 11:53:02;;;;;;;47.72;34.33;;;;;;;19.79;73.12;101356.72;4991816;28;20478;-69
2022/05/20 11:55:36;;;;;;;48.83;34.00;;;;;;;19.75;72.75;101336.44;4991493;28;20026;-69
2022/05/20 11:58:06;;;;;;;49.63;35.60;;;;;;;19.73;72.56;101327.66;4993615;28;20037;-69